sensor_id;sensor_type;location;lat;lon;timestamp;P1;durP1;ratioP1;P2;durP2;ratioP2
4575;SDS011;2300;51.874;8.430;2024-01-06T00:01:22;28.57;;;18.47;;
4575;SDS011;2300;51.874;8.430;2024-01-06T00:03:49;28.27;;;17.97;;
4575;SDS011;2300;51.874;8.430;2024-01-06T00:06:16;24.07;;;16.83;;
4575;SDS011;2300;51.874;8.430;2024-01-06T00:08:43;23.27;;;15.87;;
4575;SDS011;2300;51.874;8.430;2024-01-06T00:11:10;21.70;;;12.63;;
4575;SDS011;2300;51.874;8.430;2024-01-06T00:13:36;21.20;;;13.27;;
4575;SDS011;2300;51.874;8.430;2024-01-06T00:16:03;19.37;;;11.97;;
4575;SDS011;2300;51.874;8.430;2024-01-06T00:18:30;17.20;;;11.57;;
4575;SDS011;2300;51.874;8.430;2024-01-06T00:20:57;17.17;;;11.50;;
4575;SDS011;2300;51.874;8.430;2024-01-06T00:23:24;17.63;;;11.67;;
4575;SDS011;2300;51.874;8.430;2024-01-06T00:25:51;15.20;;;10.97;;
4575;SDS011;2300;51.874;8.430;2024-01-06T00:28:17;16.57;;;10.80;;
4575;SDS011;2300;51.874;8.430;2024-01-06T00:30:44;14.80;;;10.50;;
4575;SDS011;2300;51.874;8.430;2024-01-06T00:33:11;14.83;;;9.60;;
4575;SDS011;2300;51.874;8.430;2024-01-06T00:35:38;15.27;;;9.07;;
4575;SDS011;2300;51.874;8.430;2024-01-06T00:38:05;13.87;;;9.37;;
4575;SDS011;2300;51.874;8.430;2024-01-06T00:40:33;14.17;;;9.47;;
4575;SDS011;2300;51.874;8.430;2024-01-06T00:43:00;13.50;;;9.27;;
4575;SDS011;2300;51.874;8.430;2024-01-06T00:45:26;14.00;;;9.43;;
4575;SDS011;2300;51.874;8.430;2024-01-06T00:47:53;15.03;;;9.23;;
4575;SDS011;2300;51.874;8.430;2024-01-06T00:50:20;14.40;;;9.60;;
4575;SDS011;2300;51.874;8.430;2024-01-06T00:52:46;15.33;;;10.13;;
4575;SDS011;2300;51.874;8.430;2024-01-06T00:55:13;14.17;;;9.27;;
4575;SDS011;2300;51.874;8.430;2024-01-06T00:57:41;16.43;;;9.90;;
4575;SDS011;2300;51.874;8.430;2024-01-06T01:00:08;14.27;;;9.47;;
4575;SDS011;2300;51.874;8.430;2024-01-06T01:02:35;14.63;;;9.23;;
4575;SDS011;2300;51.874;8.430;2024-01-06T01:05:02;16.80;;;10.60;;
4575;SDS011;2300;51.874;8.430;2024-01-06T01:07:28;16.40;;;11.37;;
4575;SDS011;2300;51.874;8.430;2024-01-06T01:09:55;15.80;;;10.93;;
4575;SDS011;2300;51.874;8.430;2024-01-06T01:12:22;18.83;;;10.93;;
4575;SDS011;2300;51.874;8.430;2024-01-06T01:14:50;16.70;;;10.00;;
4575;SDS011;2300;51.874;8.430;2024-01-06T01:17:17;17.70;;;11.43;;
4575;SDS011;2300;51.874;8.430;2024-01-06T01:19:44;16.10;;;10.97;;
4575;SDS011;2300;51.874;8.430;2024-01-06T01:22:10;15.97;;;10.93;;
4575;SDS011;2300;51.874;8.430;2024-01-06T01:24:37;17.40;;;11.50;;
4575;SDS011;2300;51.874;8.430;2024-01-06T01:27:04;20.67;;;10.60;;
4575;SDS011;2300;51.874;8.430;2024-01-06T01:29:30;19.17;;;12.13;;
4575;SDS011;2300;51.874;8.430;2024-01-06T01:31:58;18.93;;;11.90;;
4575;SDS011;2300;51.874;8.430;2024-01-06T01:34:25;17.80;;;11.00;;
4575;SDS011;2300;51.874;8.430;2024-01-06T01:36:52;17.67;;;11.40;;
4575;SDS011;2300;51.874;8.430;2024-01-06T01:39:18;18.13;;;12.17;;
4575;SDS011;2300;51.874;8.430;2024-01-06T01:41:45;21.07;;;12.13;;
4575;SDS011;2300;51.874;8.430;2024-01-06T01:44:11;20.60;;;12.03;;
4575;SDS011;2300;51.874;8.430;2024-01-06T01:46:38;20.10;;;12.37;;
4575;SDS011;2300;51.874;8.430;2024-01-06T01:49:06;21.07;;;12.47;;
4575;SDS011;2300;51.874;8.430;2024-01-06T01:51:33;21.83;;;13.37;;
4575;SDS011;2300;51.874;8.430;2024-01-06T01:54:00;21.20;;;12.77;;
4575;SDS011;2300;51.874;8.430;2024-01-06T01:56:28;22.60;;;13.77;;
4575;SDS011;2300;51.874;8.430;2024-01-06T01:58:59;22.63;;;13.27;;
4575;SDS011;2300;51.874;8.430;2024-01-06T02:01:26;21.40;;;12.90;;
4575;SDS011;2300;51.874;8.430;2024-01-06T02:03:53;21.07;;;13.00;;
4575;SDS011;2300;51.874;8.430;2024-01-06T02:06:21;22.97;;;13.83;;
4575;SDS011;2300;51.874;8.430;2024-01-06T02:08:48;24.63;;;13.13;;
4575;SDS011;2300;51.874;8.430;2024-01-06T02:11:14;23.17;;;13.60;;
4575;SDS011;2300;51.874;8.430;2024-01-06T02:13:41;23.23;;;12.93;;
4575;SDS011;2300;51.874;8.430;2024-01-06T02:16:07;25.50;;;14.20;;
4575;SDS011;2300;51.874;8.430;2024-01-06T02:18:34;30.10;;;15.40;;
4575;SDS011;2300;51.874;8.430;2024-01-06T02:21:01;27.70;;;15.83;;
4575;SDS011;2300;51.874;8.430;2024-01-06T02:23:30;28.20;;;15.97;;
4575;SDS011;2300;51.874;8.430;2024-01-06T02:25:56;28.07;;;16.70;;
4575;SDS011;2300;51.874;8.430;2024-01-06T02:28:23;27.00;;;15.80;;
4575;SDS011;2300;51.874;8.430;2024-01-06T02:30:49;29.67;;;16.33;;
4575;SDS011;2300;51.874;8.430;2024-01-06T02:33:16;29.30;;;16.53;;
4575;SDS011;2300;51.874;8.430;2024-01-06T02:35:44;30.47;;;16.83;;
4575;SDS011;2300;51.874;8.430;2024-01-06T02:38:10;28.57;;;16.50;;
4575;SDS011;2300;51.874;8.430;2024-01-06T02:40:38;31.33;;;17.03;;
4575;SDS011;2300;51.874;8.430;2024-01-06T02:43:05;31.60;;;17.90;;
4575;SDS011;2300;51.874;8.430;2024-01-06T02:45:32;30.67;;;16.70;;
4575;SDS011;2300;51.874;8.430;2024-01-06T02:47:58;35.07;;;18.50;;
4575;SDS011;2300;51.874;8.430;2024-01-06T02:50:25;33.70;;;17.57;;
4575;SDS011;2300;51.874;8.430;2024-01-06T02:52:51;30.47;;;16.63;;
4575;SDS011;2300;51.874;8.430;2024-01-06T02:55:18;34.43;;;18.03;;
4575;SDS011;2300;51.874;8.430;2024-01-06T02:57:46;32.10;;;17.63;;
4575;SDS011;2300;51.874;8.430;2024-01-06T03:00:12;35.40;;;18.50;;
4575;SDS011;2300;51.874;8.430;2024-01-06T03:02:40;35.03;;;18.50;;
4575;SDS011;2300;51.874;8.430;2024-01-06T03:05:08;35.53;;;18.33;;
4575;SDS011;2300;51.874;8.430;2024-01-06T03:07:35;37.17;;;19.50;;
4575;SDS011;2300;51.874;8.430;2024-01-06T03:10:01;39.43;;;20.40;;
4575;SDS011;2300;51.874;8.430;2024-01-06T03:12:28;39.67;;;20.63;;
4575;SDS011;2300;51.874;8.430;2024-01-06T03:14:56;39.27;;;19.93;;
4575;SDS011;2300;51.874;8.430;2024-01-06T03:17:23;43.50;;;20.97;;
4575;SDS011;2300;51.874;8.430;2024-01-06T03:19:49;39.77;;;19.87;;
4575;SDS011;2300;51.874;8.430;2024-01-06T03:22:16;42.47;;;22.00;;
4575;SDS011;2300;51.874;8.430;2024-01-06T03:24:43;42.13;;;21.57;;
4575;SDS011;2300;51.874;8.430;2024-01-06T03:27:09;40.80;;;20.90;;
4575;SDS011;2300;51.874;8.430;2024-01-06T03:29:36;42.20;;;21.30;;
4575;SDS011;2300;51.874;8.430;2024-01-06T03:32:04;41.67;;;20.80;;
4575;SDS011;2300;51.874;8.430;2024-01-06T03:34:31;51.03;;;24.37;;
4575;SDS011;2300;51.874;8.430;2024-01-06T03:36:58;46.10;;;24.10;;
4575;SDS011;2300;51.874;8.430;2024-01-06T03:39:24;47.00;;;23.30;;
4575;SDS011;2300;51.874;8.430;2024-01-06T03:41:51;50.03;;;25.70;;
4575;SDS011;2300;51.874;8.430;2024-01-06T03:44:17;52.40;;;25.40;;
4575;SDS011;2300;51.874;8.430;2024-01-06T03:46:44;47.00;;;24.63;;
4575;SDS011;2300;51.874;8.430;2024-01-06T03:49:12;48.40;;;23.83;;
4575;SDS011;2300;51.874;8.430;2024-01-06T03:51:38;49.83;;;25.10;;
4575;SDS011;2300;51.874;8.430;2024-01-06T03:54:05;47.97;;;24.50;;
4575;SDS011;2300;51.874;8.430;2024-01-06T03:56:31;54.07;;;25.47;;
4575;SDS011;2300;51.874;8.430;2024-01-06T03:58:58;50.87;;;25.23;;
4575;SDS011;2300;51.874;8.430;2024-01-06T04:01:24;54.10;;;26.13;;
4575;SDS011;2300;51.874;8.430;2024-01-06T04:03:51;49.13;;;24.70;;
4575;SDS011;2300;51.874;8.430;2024-01-06T04:06:19;54.20;;;25.83;;
4575;SDS011;2300;51.874;8.430;2024-01-06T04:08:45;52.50;;;24.90;;
4575;SDS011;2300;51.874;8.430;2024-01-06T04:11:12;55.27;;;26.57;;
4575;SDS011;2300;51.874;8.430;2024-01-06T04:13:38;54.40;;;25.87;;
4575;SDS011;2300;51.874;8.430;2024-01-06T04:16:05;53.23;;;25.77;;
4575;SDS011;2300;51.874;8.430;2024-01-06T04:18:32;57.60;;;26.30;;
4575;SDS011;2300;51.874;8.430;2024-01-06T04:20:58;55.53;;;25.70;;
4575;SDS011;2300;51.874;8.430;2024-01-06T04:23:26;48.40;;;24.40;;
4575;SDS011;2300;51.874;8.430;2024-01-06T04:25:53;51.40;;;25.60;;
4575;SDS011;2300;51.874;8.430;2024-01-06T04:28:20;54.23;;;25.23;;
4575;SDS011;2300;51.874;8.430;2024-01-06T04:30:46;55.23;;;26.20;;
4575;SDS011;2300;51.874;8.430;2024-01-06T04:33:13;51.33;;;24.63;;
4575;SDS011;2300;51.874;8.430;2024-01-06T04:35:39;55.43;;;26.50;;
4575;SDS011;2300;51.874;8.430;2024-01-06T04:38:06;51.33;;;25.00;;
4575;SDS011;2300;51.874;8.430;2024-01-06T04:40:34;52.57;;;24.40;;
4575;SDS011;2300;51.874;8.430;2024-01-06T04:43:00;52.37;;;24.57;;
4575;SDS011;2300;51.874;8.430;2024-01-06T04:45:28;51.17;;;24.50;;
4575;SDS011;2300;51.874;8.430;2024-01-06T04:47:54;50.27;;;24.07;;
4575;SDS011;2300;51.874;8.430;2024-01-06T04:50:21;51.37;;;23.20;;
4575;SDS011;2300;51.874;8.430;2024-01-06T04:52:47;47.93;;;21.17;;
4575;SDS011;2300;51.874;8.430;2024-01-06T04:55:14;47.27;;;20.23;;
4575;SDS011;2300;51.874;8.430;2024-01-06T04:57:42;43.47;;;18.90;;
4575;SDS011;2300;51.874;8.430;2024-01-06T05:00:09;47.83;;;20.63;;
4575;SDS011;2300;51.874;8.430;2024-01-06T05:02:37;44.00;;;19.20;;
4575;SDS011;2300;51.874;8.430;2024-01-06T05:05:04;43.60;;;19.33;;
4575;SDS011;2300;51.874;8.430;2024-01-06T05:07:30;44.60;;;18.20;;
4575;SDS011;2300;51.874;8.430;2024-01-06T05:09:57;45.00;;;19.63;;
4575;SDS011;2300;51.874;8.430;2024-01-06T05:12:23;45.27;;;18.97;;
4575;SDS011;2300;51.874;8.430;2024-01-06T05:14:51;40.43;;;18.40;;
4575;SDS011;2300;51.874;8.430;2024-01-06T05:17:18;44.70;;;19.30;;
4575;SDS011;2300;51.874;8.430;2024-01-06T05:19:44;40.60;;;18.17;;
4575;SDS011;2300;51.874;8.430;2024-01-06T05:22:11;43.03;;;19.97;;
4575;SDS011;2300;51.874;8.430;2024-01-06T05:24:37;40.33;;;18.60;;
4575;SDS011;2300;51.874;8.430;2024-01-06T05:27:04;37.17;;;17.87;;
4575;SDS011;2300;51.874;8.430;2024-01-06T05:29:30;39.63;;;19.07;;
4575;SDS011;2300;51.874;8.430;2024-01-06T05:31:58;35.83;;;16.83;;
4575;SDS011;2300;51.874;8.430;2024-01-06T05:34:25;37.67;;;16.30;;
4575;SDS011;2300;51.874;8.430;2024-01-06T05:36:52;34.97;;;17.13;;
4575;SDS011;2300;51.874;8.430;2024-01-06T05:39:18;36.40;;;16.53;;
4575;SDS011;2300;51.874;8.430;2024-01-06T05:41:45;37.67;;;17.30;;
4575;SDS011;2300;51.874;8.430;2024-01-06T05:44:11;35.77;;;17.03;;
4575;SDS011;2300;51.874;8.430;2024-01-06T05:46:38;39.27;;;18.70;;
4575;SDS011;2300;51.874;8.430;2024-01-06T05:49:06;36.43;;;17.83;;
4575;SDS011;2300;51.874;8.430;2024-01-06T05:51:33;35.97;;;17.47;;
4575;SDS011;2300;51.874;8.430;2024-01-06T05:54:00;37.73;;;17.40;;
4575;SDS011;2300;51.874;8.430;2024-01-06T05:56:27;37.40;;;18.13;;
4575;SDS011;2300;51.874;8.430;2024-01-06T05:58:55;37.67;;;17.30;;
4575;SDS011;2300;51.874;8.430;2024-01-06T06:01:21;33.53;;;16.40;;
4575;SDS011;2300;51.874;8.430;2024-01-06T06:03:48;35.13;;;16.27;;
4575;SDS011;2300;51.874;8.430;2024-01-06T06:06:16;34.03;;;16.33;;
4575;SDS011;2300;51.874;8.430;2024-01-06T06:08:43;35.50;;;17.03;;
4575;SDS011;2300;51.874;8.430;2024-01-06T06:11:10;34.03;;;17.03;;
4575;SDS011;2300;51.874;8.430;2024-01-06T06:13:37;35.17;;;17.30;;
4575;SDS011;2300;51.874;8.430;2024-01-06T06:16:04;36.67;;;18.07;;
4575;SDS011;2300;51.874;8.430;2024-01-06T06:18:31;38.20;;;18.37;;
4575;SDS011;2300;51.874;8.430;2024-01-06T06:20:58;35.40;;;16.83;;
4575;SDS011;2300;51.874;8.430;2024-01-06T06:23:26;34.00;;;15.63;;
4575;SDS011;2300;51.874;8.430;2024-01-06T06:25:53;34.00;;;14.87;;
4575;SDS011;2300;51.874;8.430;2024-01-06T06:28:19;33.27;;;15.37;;
4575;SDS011;2300;51.874;8.430;2024-01-06T06:30:46;31.70;;;15.20;;
4575;SDS011;2300;51.874;8.430;2024-01-06T06:33:12;29.97;;;14.10;;
4575;SDS011;2300;51.874;8.430;2024-01-06T06:35:39;30.33;;;13.50;;
4575;SDS011;2300;51.874;8.430;2024-01-06T06:38:05;30.23;;;14.30;;
4575;SDS011;2300;51.874;8.430;2024-01-06T06:40:34;27.53;;;13.70;;
4575;SDS011;2300;51.874;8.430;2024-01-06T06:43:00;26.97;;;13.43;;
4575;SDS011;2300;51.874;8.430;2024-01-06T06:45:27;27.93;;;14.30;;
4575;SDS011;2300;51.874;8.430;2024-01-06T06:47:53;31.67;;;13.13;;
4575;SDS011;2300;51.874;8.430;2024-01-06T06:50:20;30.50;;;13.70;;
4575;SDS011;2300;51.874;8.430;2024-01-06T06:52:46;28.73;;;13.33;;
4575;SDS011;2300;51.874;8.430;2024-01-06T06:55:13;31.30;;;14.07;;
4575;SDS011;2300;51.874;8.430;2024-01-06T06:57:41;31.30;;;13.90;;
4575;SDS011;2300;51.874;8.430;2024-01-06T07:00:08;29.83;;;13.73;;
4575;SDS011;2300;51.874;8.430;2024-01-06T07:02:35;32.67;;;13.57;;
4575;SDS011;2300;51.874;8.430;2024-01-06T07:05:01;29.27;;;13.97;;
4575;SDS011;2300;51.874;8.430;2024-01-06T07:07:29;33.03;;;14.53;;
4575;SDS011;2300;51.874;8.430;2024-01-06T07:09:56;29.37;;;13.70;;
4575;SDS011;2300;51.874;8.430;2024-01-06T07:12:22;30.13;;;13.23;;
4575;SDS011;2300;51.874;8.430;2024-01-06T07:14:50;30.63;;;13.33;;
4575;SDS011;2300;51.874;8.430;2024-01-06T07:17:17;29.83;;;14.00;;
4575;SDS011;2300;51.874;8.430;2024-01-06T07:19:43;29.47;;;13.23;;
4575;SDS011;2300;51.874;8.430;2024-01-06T07:22:10;28.83;;;13.83;;
4575;SDS011;2300;51.874;8.430;2024-01-06T07:24:37;27.27;;;13.03;;
4575;SDS011;2300;51.874;8.430;2024-01-06T07:27:03;27.73;;;12.50;;
4575;SDS011;2300;51.874;8.430;2024-01-06T07:29:30;26.10;;;12.03;;
4575;SDS011;2300;51.874;8.430;2024-01-06T07:31:58;25.87;;;11.53;;
4575;SDS011;2300;51.874;8.430;2024-01-06T07:34:25;27.77;;;12.40;;
4575;SDS011;2300;51.874;8.430;2024-01-06T07:36:51;27.00;;;11.93;;
4575;SDS011;2300;51.874;8.430;2024-01-06T07:39:18;24.97;;;10.63;;
4575;SDS011;2300;51.874;8.430;2024-01-06T07:41:44;25.30;;;11.83;;
4575;SDS011;2300;51.874;8.430;2024-01-06T07:44:11;23.90;;;10.50;;
4575;SDS011;2300;51.874;8.430;2024-01-06T07:46:38;20.57;;;9.87;;
4575;SDS011;2300;51.874;8.430;2024-01-06T07:49:06;20.97;;;10.47;;
4575;SDS011;2300;51.874;8.430;2024-01-06T07:51:33;22.53;;;9.97;;
4575;SDS011;2300;51.874;8.430;2024-01-06T07:54:00;20.83;;;10.03;;
4575;SDS011;2300;51.874;8.430;2024-01-06T07:56:27;21.10;;;10.13;;
4575;SDS011;2300;51.874;8.430;2024-01-06T07:58:53;22.87;;;11.30;;
4575;SDS011;2300;51.874;8.430;2024-01-06T08:01:20;23.20;;;11.00;;
4575;SDS011;2300;51.874;8.430;2024-01-06T08:03:46;21.87;;;10.50;;
4575;SDS011;2300;51.874;8.430;2024-01-06T08:06:14;21.93;;;10.67;;
4575;SDS011;2300;51.874;8.430;2024-01-06T08:08:41;21.63;;;10.97;;
4575;SDS011;2300;51.874;8.430;2024-01-06T08:11:07;23.57;;;10.37;;
4575;SDS011;2300;51.874;8.430;2024-01-06T08:13:34;23.37;;;10.23;;
4575;SDS011;2300;51.874;8.430;2024-01-06T08:16:01;20.97;;;10.77;;
4575;SDS011;2300;51.874;8.430;2024-01-06T08:18:27;22.27;;;11.23;;
4575;SDS011;2300;51.874;8.430;2024-01-06T08:20:54;25.53;;;10.90;;
4575;SDS011;2300;51.874;8.430;2024-01-06T08:23:22;25.10;;;11.37;;
4575;SDS011;2300;51.874;8.430;2024-01-06T08:25:48;22.30;;;10.60;;
4575;SDS011;2300;51.874;8.430;2024-01-06T08:28:15;22.27;;;11.27;;
4575;SDS011;2300;51.874;8.430;2024-01-06T08:30:43;26.23;;;11.23;;
4575;SDS011;2300;51.874;8.430;2024-01-06T08:33:10;25.50;;;11.77;;
4575;SDS011;2300;51.874;8.430;2024-01-06T08:35:36;21.93;;;10.43;;
4575;SDS011;2300;51.874;8.430;2024-01-06T08:38:05;23.77;;;10.60;;
4575;SDS011;2300;51.874;8.430;2024-01-06T08:40:33;21.57;;;10.07;;
4575;SDS011;2300;51.874;8.430;2024-01-06T08:43:00;23.60;;;11.00;;
4575;SDS011;2300;51.874;8.430;2024-01-06T08:45:27;23.77;;;10.87;;
4575;SDS011;2300;51.874;8.430;2024-01-06T08:47:54;25.67;;;11.60;;
4575;SDS011;2300;51.874;8.430;2024-01-06T08:50:20;26.93;;;12.33;;
4575;SDS011;2300;51.874;8.430;2024-01-06T08:52:47;26.90;;;12.37;;
4575;SDS011;2300;51.874;8.430;2024-01-06T08:55:13;29.87;;;13.53;;
4575;SDS011;2300;51.874;8.430;2024-01-06T08:57:42;28.97;;;12.87;;
4575;SDS011;2300;51.874;8.430;2024-01-06T09:00:09;27.93;;;13.57;;
4575;SDS011;2300;51.874;8.430;2024-01-06T09:02:36;33.77;;;15.87;;
4575;SDS011;2300;51.874;8.430;2024-01-06T09:05:03;34.27;;;16.03;;
4575;SDS011;2300;51.874;8.430;2024-01-06T09:07:30;33.17;;;16.10;;
4575;SDS011;2300;51.874;8.430;2024-01-06T09:09:57;39.73;;;16.37;;
4575;SDS011;2300;51.874;8.430;2024-01-06T09:12:24;32.50;;;14.37;;
4575;SDS011;2300;51.874;8.430;2024-01-06T09:14:52;30.53;;;15.00;;
4575;SDS011;2300;51.874;8.430;2024-01-06T09:17:18;39.93;;;21.43;;
4575;SDS011;2300;51.874;8.430;2024-01-06T09:19:45;32.83;;;16.23;;
4575;SDS011;2300;51.874;8.430;2024-01-06T09:22:12;31.70;;;15.47;;
4575;SDS011;2300;51.874;8.430;2024-01-06T09:24:39;30.90;;;14.90;;
4575;SDS011;2300;51.874;8.430;2024-01-06T09:27:06;31.33;;;14.43;;
4575;SDS011;2300;51.874;8.430;2024-01-06T09:29:33;28.30;;;13.27;;
4575;SDS011;2300;51.874;8.430;2024-01-06T09:32:01;30.77;;;14.23;;
4575;SDS011;2300;51.874;8.430;2024-01-06T09:34:27;28.33;;;13.47;;
4575;SDS011;2300;51.874;8.430;2024-01-06T09:36:54;33.33;;;17.63;;
4575;SDS011;2300;51.874;8.430;2024-01-06T09:39:21;36.20;;;18.40;;
4575;SDS011;2300;51.874;8.430;2024-01-06T09:41:47;46.27;;;24.97;;
4575;SDS011;2300;51.874;8.430;2024-01-06T09:44:14;31.57;;;14.47;;
4575;SDS011;2300;51.874;8.430;2024-01-06T09:46:42;30.10;;;14.10;;
4575;SDS011;2300;51.874;8.430;2024-01-06T09:49:10;32.07;;;15.40;;
4575;SDS011;2300;51.874;8.430;2024-01-06T09:51:38;30.50;;;13.47;;
4575;SDS011;2300;51.874;8.430;2024-01-06T09:54:07;26.80;;;12.40;;
4575;SDS011;2300;51.874;8.430;2024-01-06T09:56:35;28.60;;;13.27;;
4575;SDS011;2300;51.874;8.430;2024-01-06T09:59:03;24.37;;;11.00;;
4575;SDS011;2300;51.874;8.430;2024-01-06T10:01:30;24.47;;;10.63;;
4575;SDS011;2300;51.874;8.430;2024-01-06T10:03:56;23.67;;;10.63;;
4575;SDS011;2300;51.874;8.430;2024-01-06T10:06:24;22.07;;;10.70;;
4575;SDS011;2300;51.874;8.430;2024-01-06T10:08:51;20.50;;;8.80;;
4575;SDS011;2300;51.874;8.430;2024-01-06T10:11:19;19.67;;;9.47;;
4575;SDS011;2300;51.874;8.430;2024-01-06T10:13:48;19.17;;;7.97;;
4575;SDS011;2300;51.874;8.430;2024-01-06T10:16:14;21.93;;;9.47;;
4575;SDS011;2300;51.874;8.430;2024-01-06T10:18:41;19.70;;;8.77;;
4575;SDS011;2300;51.874;8.430;2024-01-06T10:21:09;24.50;;;8.60;;
4575;SDS011;2300;51.874;8.430;2024-01-06T10:23:38;20.20;;;9.50;;
4575;SDS011;2300;51.874;8.430;2024-01-06T10:26:04;19.10;;;8.33;;
4575;SDS011;2300;51.874;8.430;2024-01-06T10:28:31;21.57;;;8.23;;
4575;SDS011;2300;51.874;8.430;2024-01-06T10:30:57;21.80;;;12.27;;
4575;SDS011;2300;51.874;8.430;2024-01-06T10:33:25;19.57;;;8.50;;
4575;SDS011;2300;51.874;8.430;2024-01-06T10:35:52;20.30;;;8.43;;
4575;SDS011;2300;51.874;8.430;2024-01-06T10:38:19;20.20;;;9.27;;
4575;SDS011;2300;51.874;8.430;2024-01-06T10:40:57;17.80;;;8.73;;
4575;SDS011;2300;51.874;8.430;2024-01-06T10:43:25;19.20;;;8.87;;
4575;SDS011;2300;51.874;8.430;2024-01-06T10:45:53;20.10;;;10.20;;
4575;SDS011;2300;51.874;8.430;2024-01-06T10:48:22;20.20;;;10.17;;
4575;SDS011;2300;51.874;8.430;2024-01-06T10:50:50;18.20;;;9.90;;
4575;SDS011;2300;51.874;8.430;2024-01-06T10:53:18;22.27;;;11.07;;
4575;SDS011;2300;51.874;8.430;2024-01-06T10:55:47;20.10;;;11.50;;
4575;SDS011;2300;51.874;8.430;2024-01-06T10:58:17;19.60;;;10.30;;
4575;SDS011;2300;51.874;8.430;2024-01-06T11:00:44;19.63;;;10.70;;
4575;SDS011;2300;51.874;8.430;2024-01-06T11:03:10;21.43;;;11.40;;
4575;SDS011;2300;51.874;8.430;2024-01-06T11:05:39;26.43;;;10.77;;
4575;SDS011;2300;51.874;8.430;2024-01-06T11:08:07;25.43;;;11.87;;
4575;SDS011;2300;51.874;8.430;2024-01-06T11:10:34;23.97;;;10.90;;
4575;SDS011;2300;51.874;8.430;2024-01-06T11:13:08;26.77;;;12.40;;
4575;SDS011;2300;51.874;8.430;2024-01-06T11:15:41;22.33;;;11.37;;
4575;SDS011;2300;51.874;8.430;2024-01-06T11:18:08;23.50;;;11.40;;
4575;SDS011;2300;51.874;8.430;2024-01-06T11:20:35;23.37;;;10.57;;
4575;SDS011;2300;51.874;8.430;2024-01-06T11:23:17;23.57;;;10.97;;
4575;SDS011;2300;51.874;8.430;2024-01-06T11:25:45;22.13;;;11.77;;
4575;SDS011;2300;51.874;8.430;2024-01-06T11:28:12;21.23;;;10.40;;
4575;SDS011;2300;51.874;8.430;2024-01-06T11:30:39;20.43;;;9.87;;
4575;SDS011;2300;51.874;8.430;2024-01-06T11:33:08;19.73;;;9.37;;
4575;SDS011;2300;51.874;8.430;2024-01-06T11:35:36;20.90;;;10.00;;
4575;SDS011;2300;51.874;8.430;2024-01-06T11:38:06;19.37;;;9.40;;
4575;SDS011;2300;51.874;8.430;2024-01-06T11:40:33;18.87;;;9.50;;
4575;SDS011;2300;51.874;8.430;2024-01-06T11:43:02;17.07;;;9.03;;
4575;SDS011;2300;51.874;8.430;2024-01-06T11:45:30;16.17;;;8.37;;
4575;SDS011;2300;51.874;8.430;2024-01-06T11:47:59;17.40;;;8.37;;
4575;SDS011;2300;51.874;8.430;2024-01-06T11:50:28;17.17;;;8.37;;
4575;SDS011;2300;51.874;8.430;2024-01-06T11:52:56;15.83;;;7.13;;
4575;SDS011;2300;51.874;8.430;2024-01-06T11:55:24;13.40;;;7.00;;
4575;SDS011;2300;51.874;8.430;2024-01-06T11:57:53;13.27;;;6.40;;
4575;SDS011;2300;51.874;8.430;2024-01-06T12:00:21;13.33;;;6.60;;
4575;SDS011;2300;51.874;8.430;2024-01-06T12:02:48;13.17;;;6.37;;
4575;SDS011;2300;51.874;8.430;2024-01-06T12:05:14;13.30;;;6.33;;
4575;SDS011;2300;51.874;8.430;2024-01-06T12:07:52;16.53;;;8.90;;
4575;SDS011;2300;51.874;8.430;2024-01-06T12:10:19;13.60;;;7.73;;
4575;SDS011;2300;51.874;8.430;2024-01-06T12:12:54;12.90;;;8.20;;
4575;SDS011;2300;51.874;8.430;2024-01-06T12:15:21;16.57;;;8.63;;
4575;SDS011;2300;51.874;8.430;2024-01-06T12:17:47;14.40;;;8.00;;
4575;SDS011;2300;51.874;8.430;2024-01-06T12:20:14;14.00;;;8.13;;
4575;SDS011;2300;51.874;8.430;2024-01-06T12:22:41;8.40;;;4.30;;
4575;SDS011;2300;51.874;8.430;2024-01-06T12:25:10;7.83;;;4.10;;
4575;SDS011;2300;51.874;8.430;2024-01-06T12:27:41;7.67;;;3.63;;
4575;SDS011;2300;51.874;8.430;2024-01-06T12:30:11;7.93;;;4.20;;
4575;SDS011;2300;51.874;8.430;2024-01-06T12:32:40;7.97;;;4.37;;
4575;SDS011;2300;51.874;8.430;2024-01-06T12:35:07;9.87;;;5.23;;
4575;SDS011;2300;51.874;8.430;2024-01-06T12:37:35;9.43;;;5.30;;
4575;SDS011;2300;51.874;8.430;2024-01-06T12:40:02;8.37;;;5.23;;
4575;SDS011;2300;51.874;8.430;2024-01-06T12:42:29;11.00;;;6.63;;
4575;SDS011;2300;51.874;8.430;2024-01-06T12:44:56;11.43;;;6.10;;
4575;SDS011;2300;51.874;8.430;2024-01-06T12:47:22;9.03;;;4.63;;
4575;SDS011;2300;51.874;8.430;2024-01-06T12:49:49;9.00;;;4.90;;
4575;SDS011;2300;51.874;8.430;2024-01-06T12:52:16;11.00;;;7.20;;
4575;SDS011;2300;51.874;8.430;2024-01-06T12:54:42;13.20;;;9.00;;
4575;SDS011;2300;51.874;8.430;2024-01-06T12:57:09;9.63;;;6.13;;
4575;SDS011;2300;51.874;8.430;2024-01-06T12:59:38;11.67;;;7.50;;
4575;SDS011;2300;51.874;8.430;2024-01-06T13:02:04;11.00;;;6.00;;
4575;SDS011;2300;51.874;8.430;2024-01-06T13:04:31;10.17;;;6.40;;
4575;SDS011;2300;51.874;8.430;2024-01-06T13:06:59;9.03;;;4.67;;
4575;SDS011;2300;51.874;8.430;2024-01-06T13:09:26;9.83;;;5.37;;
4575;SDS011;2300;51.874;8.430;2024-01-06T13:11:53;10.47;;;5.27;;
4575;SDS011;2300;51.874;8.430;2024-01-06T13:14:20;8.83;;;5.00;;
4575;SDS011;2300;51.874;8.430;2024-01-06T13:16:48;10.57;;;5.93;;
4575;SDS011;2300;51.874;8.430;2024-01-06T13:19:15;10.23;;;5.90;;
4575;SDS011;2300;51.874;8.430;2024-01-06T13:21:41;12.10;;;6.77;;
4575;SDS011;2300;51.874;8.430;2024-01-06T13:24:08;10.47;;;5.73;;
4575;SDS011;2300;51.874;8.430;2024-01-06T13:26:35;10.30;;;6.20;;
4575;SDS011;2300;51.874;8.430;2024-01-06T13:29:01;12.90;;;6.27;;
4575;SDS011;2300;51.874;8.430;2024-01-06T13:31:28;12.13;;;6.17;;
4575;SDS011;2300;51.874;8.430;2024-01-06T13:33:57;12.73;;;7.17;;
4575;SDS011;2300;51.874;8.430;2024-01-06T13:36:23;11.97;;;6.90;;
4575;SDS011;2300;51.874;8.430;2024-01-06T13:38:50;12.50;;;6.53;;
4575;SDS011;2300;51.874;8.430;2024-01-06T13:41:17;13.83;;;6.80;;
4575;SDS011;2300;51.874;8.430;2024-01-06T13:43:43;11.07;;;6.30;;
4575;SDS011;2300;51.874;8.430;2024-01-06T13:46:10;14.13;;;7.43;;
4575;SDS011;2300;51.874;8.430;2024-01-06T13:48:38;12.87;;;7.80;;
4575;SDS011;2300;51.874;8.430;2024-01-06T13:51:07;26.13;;;20.17;;
4575;SDS011;2300;51.874;8.430;2024-01-06T13:53:33;40.20;;;30.23;;
4575;SDS011;2300;51.874;8.430;2024-01-06T13:56:00;22.10;;;16.57;;
4575;SDS011;2300;51.874;8.430;2024-01-06T13:58:27;15.67;;;10.13;;
4575;SDS011;2300;51.874;8.430;2024-01-06T14:00:54;14.83;;;8.03;;
4575;SDS011;2300;51.874;8.430;2024-01-06T14:03:21;11.00;;;6.67;;
4575;SDS011;2300;51.874;8.430;2024-01-06T14:05:48;15.57;;;7.50;;
4575;SDS011;2300;51.874;8.430;2024-01-06T14:08:17;12.43;;;7.00;;
4575;SDS011;2300;51.874;8.430;2024-01-06T14:10:44;16.17;;;8.37;;
4575;SDS011;2300;51.874;8.430;2024-01-06T14:13:10;14.13;;;7.97;;
4575;SDS011;2300;51.874;8.430;2024-01-06T14:15:37;13.80;;;7.90;;
4575;SDS011;2300;51.874;8.430;2024-01-06T14:18:04;16.97;;;9.77;;
4575;SDS011;2300;51.874;8.430;2024-01-06T14:20:31;25.03;;;13.93;;
4575;SDS011;2300;51.874;8.430;2024-01-06T14:23:03;71.03;;;35.10;;
4575;SDS011;2300;51.874;8.430;2024-01-06T14:25:31;29.63;;;16.30;;
4575;SDS011;2300;51.874;8.430;2024-01-06T14:27:57;25.37;;;17.03;;
4575;SDS011;2300;51.874;8.430;2024-01-06T14:30:24;22.67;;;15.70;;
4575;SDS011;2300;51.874;8.430;2024-01-06T14:32:50;22.10;;;14.60;;
4575;SDS011;2300;51.874;8.430;2024-01-06T14:35:17;20.70;;;13.60;;
4575;SDS011;2300;51.874;8.430;2024-01-06T14:37:44;21.07;;;13.23;;
4575;SDS011;2300;51.874;8.430;2024-01-06T14:40:11;22.13;;;17.67;;
4575;SDS011;2300;51.874;8.430;2024-01-06T14:42:39;25.07;;;18.77;;
4575;SDS011;2300;51.874;8.430;2024-01-06T14:45:06;26.63;;;23.83;;
4575;SDS011;2300;51.874;8.430;2024-01-06T14:47:34;19.20;;;12.93;;
4575;SDS011;2300;51.874;8.430;2024-01-06T14:50:00;27.80;;;16.83;;
4575;SDS011;2300;51.874;8.430;2024-01-06T14:52:27;26.97;;;14.10;;